Terminal Aerodrome Forecast
Issued by NWS Albany, NY

Current Version | Previous Version | Text Only | Print | Product List | Glossary On
Versions: 1 2 3 4 5 6 7 8 9 10 11 12 13 14 15 16 17 18 19 20 21 22 23
000
FTUS41 KALY 182320
TAFPOU
TAF
KPOU 182320Z 1900/1924 14004KT 6SM -RA BR SCT025 OVC035
      WS020/19035KT
      TEMPO 1900/1903 3SM -RA BR BKN025 OVC035
     FM190300 21005KT 4SM -RA BR SCT007 OVC012 WS020/21040KT
     FM190900 22012G17KT P6SM VCSH OVC015 WS020/21040KT
     FM191300 25016G31KT P6SM OVC035
     FM191700 28018G36KT P6SM SCT040=

USA.gov is the U.S. government's official web portal to all federal, state and local government web resources and services.